createdAt,value
2019-02-22T00:00:05.079Z,23.20
2019-02-22T00:02:41.724Z,23.13
2019-02-22T00:05:11.223Z,23.43
2019-02-22T00:07:43.491Z,23.93
2019-02-22T00:10:13.073Z,24.03
2019-02-22T00:12:58.246Z,23.63
2019-02-22T00:15:14.908Z,24.20
2019-02-22T00:17:44.623Z,24.27
2019-02-22T00:20:14.184Z,25.47
2019-02-22T00:23:26.817Z,22.30
2019-02-22T00:25:56.290Z,24.27
2019-02-22T00:28:26.166Z,22.33
2019-02-22T00:30:56.214Z,23.00
2019-02-22T00:33:26.436Z,22.73
2019-02-22T00:35:55.997Z,23.40
2019-02-22T00:38:27.139Z,23.07
2019-02-22T00:40:56.769Z,23.23
2019-02-22T00:43:26.322Z,21.50
2019-02-22T00:45:55.790Z,22.80
2019-02-22T00:48:25.312Z,22.93
2019-02-22T00:50:56.359Z,23.97
2019-02-22T00:53:25.861Z,22.40
2019-02-22T00:55:56.145Z,22.40
2019-02-22T00:58:25.584Z,22.50
2019-02-22T01:00:55.772Z,22.80
2019-02-22T01:03:25.629Z,21.33
2019-02-22T01:05:55.034Z,20.93
2019-02-22T01:08:24.536Z,21.70
2019-02-22T01:10:54.990Z,21.63
2019-02-22T01:13:24.526Z,24.00
2019-02-22T01:15:54.112Z,22.57
2019-02-22T01:18:23.660Z,21.97
2019-02-22T01:20:54.626Z,22.63
2019-02-22T01:23:24.872Z,21.10
2019-02-22T01:25:54.386Z,20.67
2019-02-22T01:28:23.817Z,27.82
2019-02-22T01:30:53.424Z,21.67
2019-02-22T01:33:23.253Z,23.10
2019-02-22T01:35:52.787Z,22.43
2019-02-22T01:38:28.536Z,21.10
2019-02-22T01:40:58.292Z,21.17
2019-02-22T01:43:28.059Z,22.53
2019-02-22T01:45:57.907Z,21.30
2019-02-22T01:48:27.641Z,22.17
2019-02-22T01:50:57.569Z,21.23
2019-02-22T01:53:26.999Z,20.80
2019-02-22T01:55:56.431Z,20.37
2019-02-22T01:58:26.519Z,19.20
2019-02-22T02:00:56.405Z,22.07
2019-02-22T02:03:25.868Z,21.83
2019-02-22T02:05:56.404Z,23.20
2019-02-22T02:08:25.871Z,21.90
2019-02-22T02:10:55.395Z,20.70
2019-02-22T02:13:24.919Z,21.87
2019-02-22T02:15:54.459Z,19.67
2019-02-22T02:18:24.383Z,21.00
2019-02-22T02:20:54.409Z,22.17
2019-02-22T02:23:24.003Z,20.97
2019-02-22T02:25:53.472Z,21.23
2019-02-22T02:28:22.918Z,20.20
2019-02-22T02:30:52.383Z,22.47
2019-02-22T02:33:21.825Z,23.70
2019-02-22T02:35:51.806Z,22.70
2019-02-22T02:38:24.759Z,23.03
2019-02-22T02:41:06.815Z,22.33
2019-02-22T02:43:25.719Z,23.30
2019-02-22T02:45:55.598Z,20.63
2019-02-22T02:48:25.478Z,23.10
2019-02-22T02:50:55.037Z,22.57
2019-02-22T02:53:25.475Z,24.57
2019-02-22T02:55:55.601Z,23.80
2019-02-22T02:58:25.092Z,24.67
2019-02-22T03:00:54.592Z,22.03
2019-02-22T03:03:26.381Z,22.67
2019-02-22T03:06:14.839Z,22.97
2019-02-22T03:08:44.338Z,24.40
2019-02-22T03:11:20.645Z,20.23
2019-02-22T03:13:46.206Z,20.97
2019-02-22T03:16:15.839Z,20.83
2019-02-22T03:18:45.398Z,21.73
2019-02-22T03:21:14.889Z,20.73
2019-02-22T03:23:44.768Z,21.93
2019-02-22T03:26:14.250Z,23.50
2019-02-22T03:28:45.776Z,21.03
2019-02-22T03:31:15.535Z,23.13
2019-02-22T03:33:45.042Z,20.90
2019-02-22T03:36:14.706Z,20.27
2019-02-22T03:38:44.630Z,19.00
2019-02-22T03:41:14.225Z,20.27
2019-02-22T03:43:45.590Z,21.40
2019-02-22T03:46:15.857Z,21.43
2019-02-22T03:48:45.515Z,19.57
2019-02-22T03:51:14.982Z,19.70
2019-02-22T03:53:57.550Z,20.53
2019-02-22T03:56:27.307Z,20.73
2019-02-22T03:58:57.114Z,20.93
2019-02-22T04:01:29.659Z,22.73
2019-02-22T04:03:59.605Z,20.47
2019-02-22T04:06:29.481Z,22.77
2019-02-22T04:08:59.515Z,23.73
2019-02-22T04:11:29.225Z,21.80
2019-02-22T04:13:59.165Z,23.30
2019-02-22T04:16:28.561Z,22.70
2019-02-22T04:18:58.106Z,24.47
2019-02-22T04:21:28.084Z,23.30
2019-02-22T04:23:57.911Z,23.00
2019-02-22T04:26:27.387Z,23.47
2019-02-22T04:28:57.532Z,24.33
2019-02-22T04:31:27.081Z,24.93
2019-02-22T04:33:56.742Z,24.33
2019-02-22T04:36:26.297Z,20.23
2019-02-22T04:38:58.716Z,20.03
2019-02-22T04:41:28.245Z,19.43
2019-02-22T04:43:57.927Z,18.83
2019-02-22T04:46:28.074Z,16.00
2019-02-22T04:48:58.044Z,17.40
2019-02-22T04:51:27.525Z,16.10
2019-02-22T04:53:56.982Z,16.47
2019-02-22T04:56:26.567Z,16.50
2019-02-22T04:58:59.263Z,15.87
2019-02-22T05:01:30.254Z,15.93
2019-02-22T05:03:59.787Z,18.30
2019-02-22T05:06:29.912Z,16.67
2019-02-22T05:09:01.543Z,20.07
2019-02-22T05:11:31.374Z,18.67
2019-02-22T05:14:00.866Z,18.57
2019-02-22T05:16:30.290Z,19.00
2019-02-22T05:19:00.062Z,17.63
2019-02-22T05:21:29.628Z,15.57
2019-02-22T05:23:59.137Z,17.57
2019-02-22T05:26:28.645Z,17.40
2019-02-22T05:28:58.245Z,17.53
2019-02-22T05:31:27.807Z,17.63
2019-02-22T05:33:57.514Z,17.50
2019-02-22T05:36:27.319Z,17.87
2019-02-22T05:38:57.211Z,16.50
2019-02-22T05:41:31.978Z,17.40
2019-02-22T05:44:01.828Z,18.50
2019-02-22T05:46:31.451Z,17.13
2019-02-22T05:49:01.122Z,16.97
2019-02-22T05:51:31.523Z,18.57
2019-02-22T05:54:01.414Z,18.00
2019-02-22T05:56:31.197Z,17.43
2019-02-22T05:59:01.486Z,17.43
2019-02-22T06:01:32.150Z,19.20
2019-02-22T06:04:09.433Z,16.80
2019-02-22T06:06:38.942Z,18.90
2019-02-22T06:09:08.484Z,18.40
2019-02-22T06:11:39.555Z,18.80
2019-02-22T06:14:12.832Z,19.10
2019-02-22T06:16:46.115Z,17.30
2019-02-22T06:19:16.440Z,16.60
2019-02-22T06:21:46.076Z,19.10
2019-02-22T06:24:15.645Z,18.57
2019-02-22T06:26:45.706Z,18.17
2019-02-22T06:29:15.157Z,20.20
2019-02-22T06:31:44.661Z,19.67
2019-02-22T06:34:14.231Z,19.90
2019-02-22T06:36:44.185Z,21.70
2019-02-22T06:39:13.829Z,20.37
2019-02-22T06:41:43.352Z,21.07
2019-02-22T06:44:13.240Z,20.30
2019-02-22T06:46:43.122Z,18.90
2019-02-22T06:49:12.607Z,17.43
2019-02-22T06:51:42.409Z,19.00
2019-02-22T06:54:12.405Z,18.73
2019-02-22T06:56:41.919Z,18.40
2019-02-22T06:59:14.339Z,18.60
2019-02-22T07:01:43.943Z,17.93
2019-02-22T07:04:13.543Z,17.87
2019-02-22T07:06:43.150Z,18.60
2019-02-22T07:09:13.077Z,17.43
2019-02-22T07:11:48.029Z,17.70
2019-02-22T07:14:17.466Z,18.67
2019-02-22T07:16:46.797Z,16.30
2019-02-22T07:19:16.198Z,19.90
2019-02-22T07:21:52.465Z,18.03
2019-02-22T07:24:16.990Z,18.77
2019-02-22T07:26:46.579Z,18.43
2019-02-22T07:29:16.021Z,19.90
2019-02-22T07:31:48.526Z,19.97
2019-02-22T07:34:17.940Z,19.70
2019-02-22T07:36:47.480Z,20.73
2019-02-22T07:39:27.515Z,19.43
2019-02-22T07:41:48.196Z,20.40
2019-02-22T07:44:20.537Z,19.80
2019-02-22T07:46:50.343Z,21.80
2019-02-22T07:49:25.000Z,23.10
2019-02-22T07:51:54.390Z,24.17
2019-02-22T07:54:23.869Z,23.60
2019-02-22T07:56:53.287Z,25.80
2019-02-22T07:59:22.715Z,21.83
2019-02-22T08:01:52.117Z,20.90
2019-02-22T08:04:26.335Z,20.80
2019-02-22T08:06:57.492Z,19.77
2019-02-22T08:09:26.946Z,21.90
2019-02-22T08:11:57.966Z,20.87
2019-02-22T08:14:27.569Z,21.37
2019-02-22T08:16:59.279Z,21.73
2019-02-22T08:19:29.108Z,22.37
2019-02-22T08:22:00.201Z,21.07
2019-02-22T08:24:30.913Z,21.50
2019-02-22T08:27:00.454Z,20.27
2019-02-22T08:29:29.928Z,21.30
2019-02-22T08:31:59.443Z,20.90
2019-02-22T08:34:28.949Z,23.27
2019-02-22T08:37:01.102Z,21.00
2019-02-22T08:39:30.720Z,21.50
2019-02-22T08:42:00.336Z,22.10
2019-02-22T08:44:29.938Z,24.20
2019-02-22T08:46:59.465Z,23.00
2019-02-22T08:49:28.988Z,21.40
2019-02-22T08:51:58.776Z,22.73
2019-02-22T08:54:34.407Z,22.77
2019-02-22T08:57:29.816Z,22.43
2019-02-22T08:59:59.100Z,22.83
2019-02-22T09:02:37.461Z,22.50
2019-02-22T09:05:07.402Z,22.93
2019-02-22T09:07:40.003Z,22.03
2019-02-22T09:10:10.072Z,23.13
2019-02-22T09:12:39.639Z,22.63
2019-02-22T09:15:09.292Z,23.13
2019-02-22T09:17:38.836Z,22.83
2019-02-22T09:20:09.346Z,21.63
2019-02-22T09:22:38.801Z,21.67
2019-02-22T09:25:08.480Z,22.27
2019-02-22T09:27:37.946Z,23.00
2019-02-22T09:30:14.997Z,23.47
2019-02-22T09:32:44.505Z,23.30
2019-02-22T09:35:14.073Z,23.47
2019-02-22T09:37:43.852Z,24.67
2019-02-22T09:40:14.755Z,24.13
2019-02-22T09:42:44.476Z,25.13
2019-02-22T09:45:14.189Z,24.30
2019-02-22T09:47:43.716Z,23.53
2019-02-22T09:50:13.429Z,21.43
2019-02-22T09:52:42.940Z,24.33
2019-02-22T09:55:12.647Z,24.70
2019-02-22T09:57:42.204Z,24.13
2019-02-22T10:00:12.779Z,23.50
2019-02-22T10:02:44.869Z,23.57
2019-02-22T10:05:15.036Z,25.97
2019-02-22T10:07:44.571Z,24.23
2019-02-22T10:10:14.077Z,24.17
2019-02-22T10:12:43.532Z,23.40
2019-02-22T10:15:12.976Z,24.13
2019-02-22T10:17:42.538Z,23.90
2019-02-22T10:20:12.203Z,25.20
2019-02-22T10:22:41.919Z,23.47
2019-02-22T10:25:11.494Z,25.33
2019-02-22T10:27:41.054Z,23.60
2019-02-22T10:30:11.083Z,25.37
2019-02-22T10:32:40.646Z,24.57
2019-02-22T10:35:10.243Z,25.37
2019-02-22T10:37:39.791Z,26.53
2019-02-22T10:40:09.258Z,23.00
2019-02-22T10:42:38.870Z,24.67
2019-02-22T10:45:08.633Z,25.23
2019-02-22T10:47:38.222Z,24.83
2019-02-22T10:50:08.056Z,25.30
2019-02-22T10:52:37.761Z,26.00
2019-02-22T10:55:08.098Z,23.87
2019-02-22T10:57:40.479Z,25.33
2019-02-22T11:00:12.605Z,23.67
2019-02-22T11:02:44.596Z,25.57
2019-02-22T11:05:14.118Z,23.73
2019-02-22T11:07:43.952Z,24.33
2019-02-22T11:10:13.830Z,27.13
2019-02-22T11:12:43.486Z,25.47
2019-02-22T11:15:16.400Z,31.15
2019-02-22T11:17:45.839Z,26.40
2019-02-22T11:20:15.265Z,26.47
2019-02-22T11:22:44.910Z,26.53
2019-02-22T11:25:14.546Z,26.87
2019-02-22T11:28:25.218Z,24.57
2019-02-22T11:31:03.918Z,27.17
2019-02-22T11:34:27.948Z,25.07
2019-02-22T11:36:58.954Z,26.50
2019-02-22T11:39:28.664Z,26.73
2019-02-22T11:42:03.286Z,27.30
2019-02-22T11:44:49.649Z,27.00
2019-02-22T11:47:27.824Z,25.73
2019-02-22T11:50:15.308Z,25.83
2019-02-22T11:52:46.500Z,26.40
2019-02-22T11:55:21.289Z,31.45
2019-02-22T11:58:00.039Z,27.33
2019-02-22T12:00:31.361Z,25.27
2019-02-22T12:03:38.010Z,27.37
2019-02-22T12:06:13.905Z,27.73
2019-02-22T12:09:25.123Z,25.87
2019-02-22T12:11:54.853Z,26.90
2019-02-22T12:14:26.473Z,27.20
2019-02-22T12:17:03.740Z,25.00
2019-02-22T12:19:36.358Z,26.77
2019-02-22T12:22:11.649Z,25.90
2019-02-22T12:24:44.672Z,25.57
2019-02-22T12:27:17.248Z,26.87
2019-02-22T12:37:55.615Z,26.90
2019-02-22T12:40:51.258Z,27.90
2019-02-22T12:43:27.621Z,27.77
2019-02-22T12:45:58.081Z,27.80
2019-02-22T12:48:30.200Z,28.00
2019-02-22T12:51:13.682Z,27.70
2019-02-22T12:53:47.775Z,27.83
2019-02-22T12:56:53.282Z,27.37
2019-02-22T12:58:55.321Z,29.73
2019-02-22T13:01:27.737Z,26.70
2019-02-22T13:04:07.541Z,28.17
2019-02-22T13:07:03.786Z,28.90
2019-02-22T13:09:36.844Z,28.03
2019-02-22T13:12:13.567Z,28.47
2019-02-22T13:14:41.461Z,28.20
2019-02-22T13:17:12.252Z,29.40
2019-02-22T13:19:42.088Z,28.97
2019-02-22T13:22:35.150Z,29.67
2019-02-22T13:25:46.547Z,28.60
2019-02-22T13:28:20.649Z,30.73
2019-02-22T13:30:50.653Z,29.67
2019-02-22T13:33:25.716Z,29.53
2019-02-22T13:36:21.775Z,32.03
2019-02-22T13:38:54.896Z,31.07
2019-02-22T13:41:25.826Z,30.03
2019-02-22T13:43:56.982Z,30.03
2019-02-22T13:46:26.841Z,31.27
2019-02-22T13:48:56.388Z,30.23
2019-02-22T13:51:27.441Z,31.77
2019-02-22T13:53:57.558Z,31.13
2019-02-22T13:56:29.864Z,29.50
2019-02-22T13:58:59.636Z,30.47
2019-02-22T14:01:29.430Z,27.33
2019-02-22T14:03:59.197Z,27.30
2019-02-22T14:06:28.967Z,28.83
2019-02-22T14:09:04.781Z,27.67
2019-02-22T14:11:34.745Z,26.43
2019-02-22T14:14:06.740Z,28.13
2019-02-22T14:16:36.592Z,29.97
2019-02-22T14:19:07.109Z,28.87
2019-02-22T14:21:36.794Z,28.20
2019-02-22T14:24:09.453Z,27.23
2019-02-22T14:26:39.068Z,27.15
2019-02-22T14:29:08.555Z,26.63
2019-02-22T14:31:39.234Z,25.20
2019-02-22T14:34:09.375Z,24.73
2019-02-22T14:36:38.906Z,23.40
2019-02-22T14:39:08.950Z,23.03
2019-02-22T14:41:40.259Z,23.03
2019-02-22T14:44:09.867Z,24.30
2019-02-22T14:46:39.645Z,24.27
2019-02-22T14:49:09.757Z,23.03
2019-02-22T14:51:39.435Z,23.03
2019-02-22T14:54:12.844Z,22.73
2019-02-22T14:56:42.240Z,21.10
2019-02-22T14:59:11.787Z,21.20
2019-02-22T15:02:12.260Z,20.87
2019-02-22T15:04:41.932Z,20.13
2019-02-22T15:07:13.281Z,20.27
2019-02-22T15:09:42.903Z,21.07
2019-02-22T15:12:13.954Z,19.87
2019-02-22T15:14:43.596Z,20.83
2019-02-22T15:17:23.686Z,22.03
2019-02-22T15:19:53.170Z,22.05
2019-02-22T15:22:22.746Z,20.53
2019-02-22T15:24:53.689Z,19.53
2019-02-22T15:27:24.042Z,17.67
2019-02-22T15:29:53.965Z,15.43
2019-02-22T15:32:25.570Z,13.97
2019-02-22T15:34:55.204Z,12.73
2019-02-22T15:37:24.787Z,10.57
2019-02-22T15:39:54.332Z,9.30
2019-02-22T15:42:24.487Z,10.27
2019-02-22T15:44:54.988Z,10.67
2019-02-22T15:47:24.651Z,9.93
2019-02-22T15:49:54.158Z,10.63
2019-02-22T15:52:25.441Z,10.83
2019-02-22T15:54:55.013Z,17.17
2019-02-22T15:57:25.206Z,19.13
2019-02-22T15:59:55.293Z,20.27
2019-02-22T16:02:24.966Z,19.97
2019-02-22T16:05:03.798Z,18.47
2019-02-22T16:07:43.901Z,17.03
2019-02-22T16:10:05.241Z,16.77
2019-02-22T16:12:34.883Z,17.63
2019-02-22T16:15:05.944Z,16.47
2019-02-22T16:17:35.862Z,15.57
2019-02-22T16:20:08.879Z,15.60
2019-02-22T16:22:38.390Z,15.40
2019-02-22T16:25:19.110Z,14.33
2019-02-22T16:27:44.636Z,14.83
2019-02-22T16:30:16.091Z,15.30
2019-02-22T16:32:45.766Z,15.73
2019-02-22T16:35:16.521Z,18.10
2019-02-22T16:37:48.847Z,19.03
2019-02-22T16:40:18.578Z,17.43
2019-02-22T16:42:48.116Z,18.50
2019-02-22T16:45:24.692Z,18.77
2019-02-22T16:47:54.187Z,17.57
2019-02-22T16:50:24.257Z,16.60
2019-02-22T16:52:54.098Z,18.00
2019-02-22T16:55:25.097Z,16.93
2019-02-22T16:57:55.074Z,18.33
2019-02-22T17:00:24.898Z,18.43
2019-02-22T17:03:01.481Z,18.47
2019-02-22T17:05:44.995Z,20.07
2019-02-22T17:08:16.795Z,20.57
2019-02-22T17:10:47.836Z,22.47
2019-02-22T17:17:01.090Z,24.73
2019-02-22T17:20:18.236Z,23.47
2019-02-22T17:23:00.466Z,22.90
2019-02-22T17:26:24.699Z,22.80
2019-02-22T17:28:54.083Z,20.40
2019-02-22T17:31:23.617Z,22.37
2019-02-22T17:33:53.501Z,19.73
2019-02-22T17:36:27.081Z,19.33
2019-02-22T17:38:55.781Z,20.67
2019-02-22T17:41:25.669Z,20.10
2019-02-22T17:44:04.967Z,18.60
2019-02-22T17:46:42.281Z,17.83
2019-02-22T17:49:14.328Z,17.80
2019-02-22T17:55:47.411Z,15.97
2019-02-22T17:58:43.423Z,15.27
2019-02-22T18:01:25.683Z,15.07
2019-02-22T18:04:10.163Z,15.10
2019-02-22T18:07:19.838Z,13.57
2019-02-22T18:18:50.900Z,11.10
2019-02-22T18:33:49.343Z,8.73
2019-02-22T18:48:01.007Z,8.53
2019-02-22T18:54:40.588Z,8.17
2019-02-22T19:03:06.495Z,6.27
2019-02-22T20:03:37.914Z,17.87
2019-02-22T20:30:02.918Z,20.57
2019-02-22T20:40:59.960Z,21.97
2019-02-22T20:48:30.849Z,20.13
2019-02-22T23:47:22.141Z,24.17
